Terminal Aerodrome Forecast
Issued by NWS Sioux Falls, SD

Home | Current Version | Previous Version | Graphics & Text | Print | Product List | Glossary Off
Versions: 1 2 3 4 5 6 7 8 9 10 11 12 13 14 15

831
FTUS43 KFSD 262320
TAFHON
TAF
KHON 262320Z 2700/2724 06006KT P6SM SCT090 OVC150
     FM270600 15005KT P6SM BKN120
     FM270900 17006KT P6SM SCT120
      TEMPO 2712/2714 5SM BR
     FM271500 18010KT P6SM SCT150
     FM272200 23008KT P6SM SCT070=

USA.gov is the U.S. government's official web portal to all federal, state and local government web resources and services.